sensor_id;sensor_type;location;lat;lon;timestamp;P1;durP1;ratioP1;P2;durP2;ratioP2
15171;SDS011;7686;52.184;9.280;2023-03-01T00:02:10;0.60;;;0.50;;
15171;SDS011;7686;52.184;9.280;2023-03-01T00:04:37;0.63;;;0.50;;
15171;SDS011;7686;52.184;9.280;2023-03-01T00:07:03;0.50;;;0.50;;
15171;SDS011;7686;52.184;9.280;2023-03-01T00:09:30;0.55;;;0.55;;
15171;SDS011;7686;52.184;9.280;2023-03-01T00:11:57;0.63;;;0.50;;
15171;SDS011;7686;52.184;9.280;2023-03-01T00:14:23;0.60;;;0.60;;
15171;SDS011;7686;52.184;9.280;2023-03-01T00:16:50;0.50;;;0.50;;
15171;SDS011;7686;52.184;9.280;2023-03-01T00:19:17;0.77;;;0.60;;
15171;SDS011;7686;52.184;9.280;2023-03-01T00:21:45;0.77;;;0.60;;
15171;SDS011;7686;52.184;9.280;2023-03-01T00:24:12;0.65;;;0.60;;
15171;SDS011;7686;52.184;9.280;2023-03-01T00:26:39;0.95;;;0.60;;
15171;SDS011;7686;52.184;9.280;2023-03-01T00:29:06;0.60;;;0.43;;
15171;SDS011;7686;52.184;9.280;2023-03-01T00:31:33;0.32;;;0.32;;
15171;SDS011;7686;52.184;9.280;2023-03-01T00:34:01;0.52;;;0.50;;
15171;SDS011;7686;52.184;9.280;2023-03-01T00:36:31;0.70;;;0.50;;
15171;SDS011;7686;52.184;9.280;2023-03-01T00:39:00;0.47;;;0.47;;
15171;SDS011;7686;52.184;9.280;2023-03-01T00:41:28;0.60;;;0.60;;
15171;SDS011;7686;52.184;9.280;2023-03-01T00:43:55;0.55;;;0.40;;
15171;SDS011;7686;52.184;9.280;2023-03-01T00:46:23;0.50;;;0.50;;
15171;SDS011;7686;52.184;9.280;2023-03-01T00:48:53;0.60;;;0.60;;
15171;SDS011;7686;52.184;9.280;2023-03-01T00:51:21;0.52;;;0.52;;
15171;SDS011;7686;52.184;9.280;2023-03-01T00:53:53;0.43;;;0.43;;
15171;SDS011;7686;52.184;9.280;2023-03-01T00:56:21;0.50;;;0.50;;
15171;SDS011;7686;52.184;9.280;2023-03-01T00:58:48;0.50;;;0.50;;
15171;SDS011;7686;52.184;9.280;2023-03-01T01:01:16;0.85;;;0.50;;
15171;SDS011;7686;52.184;9.280;2023-03-01T01:03:58;0.52;;;0.52;;
15171;SDS011;7686;52.184;9.280;2023-03-01T01:06:27;0.63;;;0.63;;
15171;SDS011;7686;52.184;9.280;2023-03-01T01:08:57;0.52;;;0.52;;
15171;SDS011;7686;52.184;9.280;2023-03-01T01:11:24;0.73;;;0.52;;
15171;SDS011;7686;52.184;9.280;2023-03-01T01:13:52;0.68;;;0.68;;
15171;SDS011;7686;52.184;9.280;2023-03-01T01:16:19;0.65;;;0.65;;
15171;SDS011;7686;52.184;9.280;2023-03-01T01:18:48;0.50;;;0.50;;
15171;SDS011;7686;52.184;9.280;2023-03-01T01:21:17;0.70;;;0.70;;
15171;SDS011;7686;52.184;9.280;2023-03-01T01:23:45;0.50;;;0.50;;
15171;SDS011;7686;52.184;9.280;2023-03-01T01:26:13;0.70;;;0.70;;
15171;SDS011;7686;52.184;9.280;2023-03-01T01:28:43;0.70;;;0.60;;
15171;SDS011;7686;52.184;9.280;2023-03-01T01:31:10;0.60;;;0.57;;
15171;SDS011;7686;52.184;9.280;2023-03-01T01:33:37;0.60;;;0.60;;
15171;SDS011;7686;52.184;9.280;2023-03-01T01:36:05;0.45;;;0.45;;
15171;SDS011;7686;52.184;9.280;2023-03-01T01:38:33;0.52;;;0.52;;
15171;SDS011;7686;52.184;9.280;2023-03-01T01:41:00;0.77;;;0.57;;
15171;SDS011;7686;52.184;9.280;2023-03-01T01:43:28;0.63;;;0.40;;
15171;SDS011;7686;52.184;9.280;2023-03-01T01:46:04;0.60;;;0.60;;
15171;SDS011;7686;52.184;9.280;2023-03-01T01:48:34;0.50;;;0.50;;
15171;SDS011;7686;52.184;9.280;2023-03-01T01:51:11;0.73;;;0.60;;
15171;SDS011;7686;52.184;9.280;2023-03-01T01:53:40;0.73;;;0.60;;
15171;SDS011;7686;52.184;9.280;2023-03-01T01:56:09;0.50;;;0.50;;
15171;SDS011;7686;52.184;9.280;2023-03-01T01:58:39;0.55;;;0.55;;
15171;SDS011;7686;52.184;9.280;2023-03-01T02:01:08;0.60;;;0.60;;
15171;SDS011;7686;52.184;9.280;2023-03-01T02:03:36;0.60;;;0.60;;
15171;SDS011;7686;52.184;9.280;2023-03-01T02:06:18;0.50;;;0.50;;
15171;SDS011;7686;52.184;9.280;2023-03-01T02:09:02;0.68;;;0.68;;
15171;SDS011;7686;52.184;9.280;2023-03-01T02:11:32;0.50;;;0.50;;
15171;SDS011;7686;52.184;9.280;2023-03-01T02:14:00;0.55;;;0.45;;
15171;SDS011;7686;52.184;9.280;2023-03-01T02:16:26;0.80;;;0.80;;
15171;SDS011;7686;52.184;9.280;2023-03-01T02:18:55;0.65;;;0.57;;
15171;SDS011;7686;52.184;9.280;2023-03-01T02:21:36;0.50;;;0.50;;
15171;SDS011;7686;52.184;9.280;2023-03-01T02:24:23;0.50;;;0.50;;
15171;SDS011;7686;52.184;9.280;2023-03-01T02:27:11;0.63;;;0.63;;
15171;SDS011;7686;52.184;9.280;2023-03-01T02:29:38;0.57;;;0.57;;
15171;SDS011;7686;52.184;9.280;2023-03-01T02:32:05;0.50;;;0.50;;
15171;SDS011;7686;52.184;9.280;2023-03-01T02:34:32;0.60;;;0.60;;
15171;SDS011;7686;52.184;9.280;2023-03-01T02:39:37;0.52;;;0.52;;
15171;SDS011;7686;52.184;9.280;2023-03-01T02:42:10;1.10;;;0.60;;
15171;SDS011;7686;52.184;9.280;2023-03-01T02:44:39;0.60;;;0.60;;
15171;SDS011;7686;52.184;9.280;2023-03-01T02:47:05;1.15;;;0.70;;
15171;SDS011;7686;52.184;9.280;2023-03-01T02:49:33;0.68;;;0.68;;
15171;SDS011;7686;52.184;9.280;2023-03-01T02:57:29;0.52;;;0.52;;
15171;SDS011;7686;52.184;9.280;2023-03-01T02:59:59;0.82;;;0.60;;
15171;SDS011;7686;52.184;9.280;2023-03-01T03:02:33;0.50;;;0.50;;
15171;SDS011;7686;52.184;9.280;2023-03-01T03:05:11;0.65;;;0.60;;
15171;SDS011;7686;52.184;9.280;2023-03-01T03:07:41;1.05;;;0.60;;
15171;SDS011;7686;52.184;9.280;2023-03-01T03:10:11;0.60;;;0.60;;
15171;SDS011;7686;52.184;9.280;2023-03-01T03:12:40;0.70;;;0.60;;
15171;SDS011;7686;52.184;9.280;2023-03-01T03:15:08;1.23;;;0.80;;
15171;SDS011;7686;52.184;9.280;2023-03-01T03:17:36;1.23;;;0.70;;
15171;SDS011;7686;52.184;9.280;2023-03-01T03:20:04;0.52;;;0.50;;
15171;SDS011;7686;52.184;9.280;2023-03-01T03:22:39;0.60;;;0.60;;
15171;SDS011;7686;52.184;9.280;2023-03-01T03:25:07;0.50;;;0.50;;
15171;SDS011;7686;52.184;9.280;2023-03-01T03:27:37;0.57;;;0.50;;
15171;SDS011;7686;52.184;9.280;2023-03-01T03:30:07;0.82;;;0.60;;
15171;SDS011;7686;52.184;9.280;2023-03-01T03:32:35;0.55;;;0.50;;
15171;SDS011;7686;52.184;9.280;2023-03-01T03:35:03;1.08;;;0.70;;
15171;SDS011;7686;52.184;9.280;2023-03-01T03:37:36;0.60;;;0.60;;
15171;SDS011;7686;52.184;9.280;2023-03-01T03:40:25;0.70;;;0.70;;
15171;SDS011;7686;52.184;9.280;2023-03-01T03:42:52;0.70;;;0.70;;
15171;SDS011;7686;52.184;9.280;2023-03-01T03:45:19;0.82;;;0.60;;
15171;SDS011;7686;52.184;9.280;2023-03-01T03:47:45;0.80;;;0.63;;
15171;SDS011;7686;52.184;9.280;2023-03-01T03:50:13;0.60;;;0.60;;
15171;SDS011;7686;52.184;9.280;2023-03-01T03:52:41;0.60;;;0.60;;
15171;SDS011;7686;52.184;9.280;2023-03-01T03:55:09;0.52;;;0.50;;
15171;SDS011;7686;52.184;9.280;2023-03-01T03:57:38;0.50;;;0.50;;
15171;SDS011;7686;52.184;9.280;2023-03-01T04:00:06;0.75;;;0.70;;
15171;SDS011;7686;52.184;9.280;2023-03-01T04:02:41;0.60;;;0.60;;
15171;SDS011;7686;52.184;9.280;2023-03-01T04:05:09;0.70;;;0.70;;
15171;SDS011;7686;52.184;9.280;2023-03-01T04:07:37;1.02;;;0.70;;
15171;SDS011;7686;52.184;9.280;2023-03-01T04:10:05;0.70;;;0.70;;
15171;SDS011;7686;52.184;9.280;2023-03-01T04:12:34;0.85;;;0.70;;
15171;SDS011;7686;52.184;9.280;2023-03-01T04:15:01;0.85;;;0.70;;
15171;SDS011;7686;52.184;9.280;2023-03-01T04:17:39;0.60;;;0.60;;
15171;SDS011;7686;52.184;9.280;2023-03-01T04:20:10;0.80;;;0.60;;
15171;SDS011;7686;52.184;9.280;2023-03-01T04:22:51;0.68;;;0.52;;
15171;SDS011;7686;52.184;9.280;2023-03-01T04:25:23;0.95;;;0.80;;
15171;SDS011;7686;52.184;9.280;2023-03-01T04:27:50;0.88;;;0.80;;
15171;SDS011;7686;52.184;9.280;2023-03-01T04:30:17;0.95;;;0.70;;
15171;SDS011;7686;52.184;9.280;2023-03-01T04:32:44;0.98;;;0.70;;
15171;SDS011;7686;52.184;9.280;2023-03-01T04:35:10;0.70;;;0.70;;
15171;SDS011;7686;52.184;9.280;2023-03-01T04:37:37;1.92;;;0.60;;
15171;SDS011;7686;52.184;9.280;2023-03-01T04:40:04;0.60;;;0.60;;
15171;SDS011;7686;52.184;9.280;2023-03-01T04:42:38;0.70;;;0.70;;
15171;SDS011;7686;52.184;9.280;2023-03-01T04:45:05;0.82;;;0.80;;
15171;SDS011;7686;52.184;9.280;2023-03-01T04:47:39;0.90;;;0.75;;
15171;SDS011;7686;52.184;9.280;2023-03-01T04:50:06;0.65;;;0.65;;
15171;SDS011;7686;52.184;9.280;2023-03-01T04:52:34;0.60;;;0.60;;
15171;SDS011;7686;52.184;9.280;2023-03-01T04:55:01;0.70;;;0.70;;
15171;SDS011;7686;52.184;9.280;2023-03-01T04:57:29;0.52;;;0.52;;
15171;SDS011;7686;52.184;9.280;2023-03-01T04:59:56;0.60;;;0.60;;
15171;SDS011;7686;52.184;9.280;2023-03-01T05:02:23;0.68;;;0.68;;
15171;SDS011;7686;52.184;9.280;2023-03-01T05:04:49;1.23;;;0.73;;
15171;SDS011;7686;52.184;9.280;2023-03-01T05:07:16;0.85;;;0.60;;
15171;SDS011;7686;52.184;9.280;2023-03-01T05:09:45;0.95;;;0.60;;
15171;SDS011;7686;52.184;9.280;2023-03-01T05:12:12;0.82;;;0.70;;
15171;SDS011;7686;52.184;9.280;2023-03-01T05:14:40;0.65;;;0.60;;
15171;SDS011;7686;52.184;9.280;2023-03-01T05:17:07;0.60;;;0.60;;
15171;SDS011;7686;52.184;9.280;2023-03-01T05:19:34;0.60;;;0.60;;
15171;SDS011;7686;52.184;9.280;2023-03-01T05:22:01;0.70;;;0.60;;
15171;SDS011;7686;52.184;9.280;2023-03-01T05:24:28;0.70;;;0.70;;
15171;SDS011;7686;52.184;9.280;2023-03-01T05:26:57;0.80;;;0.73;;
15171;SDS011;7686;52.184;9.280;2023-03-01T05:29:24;1.25;;;0.80;;
15171;SDS011;7686;52.184;9.280;2023-03-01T05:34:23;1.05;;;0.70;;
15171;SDS011;7686;52.184;9.280;2023-03-01T05:36:54;0.70;;;0.70;;
15171;SDS011;7686;52.184;9.280;2023-03-01T05:39:22;0.80;;;0.75;;
15171;SDS011;7686;52.184;9.280;2023-03-01T05:41:51;0.60;;;0.60;;
15171;SDS011;7686;52.184;9.280;2023-03-01T05:44:20;0.70;;;0.70;;
15171;SDS011;7686;52.184;9.280;2023-03-01T05:46:47;1.35;;;0.60;;
15171;SDS011;7686;52.184;9.280;2023-03-01T05:49:14;0.55;;;0.50;;
15171;SDS011;7686;52.184;9.280;2023-03-01T05:51:41;0.80;;;0.60;;
15171;SDS011;7686;52.184;9.280;2023-03-01T05:54:09;0.73;;;0.70;;
15171;SDS011;7686;52.184;9.280;2023-03-01T05:56:36;0.60;;;0.60;;
15171;SDS011;7686;52.184;9.280;2023-03-01T05:59:03;0.60;;;0.60;;
15171;SDS011;7686;52.184;9.280;2023-03-01T06:01:33;0.82;;;0.70;;
15171;SDS011;7686;52.184;9.280;2023-03-01T06:04:01;0.60;;;0.60;;
15171;SDS011;7686;52.184;9.280;2023-03-01T06:06:29;2.03;;;0.77;;
15171;SDS011;7686;52.184;9.280;2023-03-01T06:08:59;1.20;;;0.80;;
15171;SDS011;7686;52.184;9.280;2023-03-01T06:11:26;0.65;;;0.60;;
15171;SDS011;7686;52.184;9.280;2023-03-01T06:13:52;0.80;;;0.80;;
15171;SDS011;7686;52.184;9.280;2023-03-01T06:16:19;1.80;;;0.85;;
15171;SDS011;7686;52.184;9.280;2023-03-01T06:18:46;0.95;;;0.70;;
15171;SDS011;7686;52.184;9.280;2023-03-01T06:21:12;1.58;;;0.85;;
15171;SDS011;7686;52.184;9.280;2023-03-01T06:23:39;3.40;;;0.75;;
15171;SDS011;7686;52.184;9.280;2023-03-01T06:26:07;1.58;;;0.60;;
15171;SDS011;7686;52.184;9.280;2023-03-01T06:28:35;0.77;;;0.70;;
15171;SDS011;7686;52.184;9.280;2023-03-01T06:31:02;1.75;;;0.80;;
15171;SDS011;7686;52.184;9.280;2023-03-01T06:33:28;1.73;;;0.93;;
15171;SDS011;7686;52.184;9.280;2023-03-01T06:35:55;2.65;;;0.80;;
15171;SDS011;7686;52.184;9.280;2023-03-01T06:38:25;1.88;;;0.77;;
15171;SDS011;7686;52.184;9.280;2023-03-01T06:40:52;2.33;;;1.02;;
15171;SDS011;7686;52.184;9.280;2023-03-01T06:43:21;2.85;;;0.90;;
15171;SDS011;7686;52.184;9.280;2023-03-01T06:45:48;1.65;;;0.90;;
15171;SDS011;7686;52.184;9.280;2023-03-01T06:48:15;1.95;;;1.00;;
15171;SDS011;7686;52.184;9.280;2023-03-01T06:50:41;1.75;;;0.90;;
15171;SDS011;7686;52.184;9.280;2023-03-01T06:53:08;1.20;;;0.90;;
15171;SDS011;7686;52.184;9.280;2023-03-01T06:55:34;1.70;;;0.88;;
15171;SDS011;7686;52.184;9.280;2023-03-01T06:58:02;1.20;;;0.80;;
15171;SDS011;7686;52.184;9.280;2023-03-01T07:00:29;1.30;;;0.95;;
15171;SDS011;7686;52.184;9.280;2023-03-01T07:02:58;2.47;;;1.00;;
15171;SDS011;7686;52.184;9.280;2023-03-01T07:05:26;2.00;;;1.17;;
15171;SDS011;7686;52.184;9.280;2023-03-01T07:07:53;2.92;;;0.95;;
15171;SDS011;7686;52.184;9.280;2023-03-01T07:10:21;1.65;;;0.82;;
15171;SDS011;7686;52.184;9.280;2023-03-01T07:12:47;1.42;;;0.82;;
15171;SDS011;7686;52.184;9.280;2023-03-01T07:15:14;0.77;;;0.73;;
15171;SDS011;7686;52.184;9.280;2023-03-01T07:17:41;1.77;;;0.90;;
15171;SDS011;7686;52.184;9.280;2023-03-01T07:20:08;1.95;;;1.00;;
15171;SDS011;7686;52.184;9.280;2023-03-01T07:22:35;1.83;;;0.98;;
15171;SDS011;7686;52.184;9.280;2023-03-01T07:25:02;2.38;;;1.00;;
15171;SDS011;7686;52.184;9.280;2023-03-01T07:27:28;2.53;;;0.93;;
15171;SDS011;7686;52.184;9.280;2023-03-01T07:29:55;2.30;;;0.88;;
15171;SDS011;7686;52.184;9.280;2023-03-01T07:32:22;1.33;;;0.90;;
15171;SDS011;7686;52.184;9.280;2023-03-01T07:34:48;1.05;;;0.85;;
15171;SDS011;7686;52.184;9.280;2023-03-01T07:37:17;3.00;;;1.10;;
15171;SDS011;7686;52.184;9.280;2023-03-01T07:39:43;3.00;;;1.02;;
15171;SDS011;7686;52.184;9.280;2023-03-01T07:42:10;1.52;;;1.08;;
15171;SDS011;7686;52.184;9.280;2023-03-01T07:44:37;2.22;;;1.05;;
15171;SDS011;7686;52.184;9.280;2023-03-01T07:47:03;1.58;;;1.00;;
15171;SDS011;7686;52.184;9.280;2023-03-01T07:49:30;4.25;;;1.15;;
15171;SDS011;7686;52.184;9.280;2023-03-01T07:51:57;2.03;;;1.00;;
15171;SDS011;7686;52.184;9.280;2023-03-01T07:54:24;1.70;;;1.00;;
15171;SDS011;7686;52.184;9.280;2023-03-01T07:56:52;2.63;;;0.80;;
15171;SDS011;7686;52.184;9.280;2023-03-01T07:59:20;1.63;;;0.90;;
15171;SDS011;7686;52.184;9.280;2023-03-01T08:01:47;1.70;;;0.88;;
15171;SDS011;7686;52.184;9.280;2023-03-01T08:04:13;2.15;;;0.90;;
15171;SDS011;7686;52.184;9.280;2023-03-01T08:06:40;2.30;;;1.05;;
15171;SDS011;7686;52.184;9.280;2023-03-01T08:09:07;3.17;;;1.13;;
15171;SDS011;7686;52.184;9.280;2023-03-01T08:11:34;2.85;;;1.10;;
15171;SDS011;7686;52.184;9.280;2023-03-01T08:14:01;2.88;;;1.13;;
15171;SDS011;7686;52.184;9.280;2023-03-01T08:16:28;3.13;;;1.20;;
15171;SDS011;7686;52.184;9.280;2023-03-01T08:18:55;0.82;;;0.73;;
15171;SDS011;7686;52.184;9.280;2023-03-01T08:21:25;2.38;;;1.00;;
15171;SDS011;7686;52.184;9.280;2023-03-01T08:23:52;4.18;;;1.10;;
15171;SDS011;7686;52.184;9.280;2023-03-01T08:26:19;1.95;;;0.70;;
15171;SDS011;7686;52.184;9.280;2023-03-01T08:28:47;2.25;;;1.10;;
15171;SDS011;7686;52.184;9.280;2023-03-01T08:31:16;1.90;;;0.98;;
15171;SDS011;7686;52.184;9.280;2023-03-01T08:33:45;1.60;;;0.70;;
15171;SDS011;7686;52.184;9.280;2023-03-01T08:36:17;5.97;;;1.20;;
15171;SDS011;7686;52.184;9.280;2023-03-01T08:38:43;3.03;;;1.13;;
15171;SDS011;7686;52.184;9.280;2023-03-01T08:41:10;2.88;;;1.15;;
15171;SDS011;7686;52.184;9.280;2023-03-01T08:43:37;2.55;;;1.10;;
15171;SDS011;7686;52.184;9.280;2023-03-01T08:46:03;1.98;;;1.00;;
15171;SDS011;7686;52.184;9.280;2023-03-01T08:48:30;1.25;;;0.80;;
15171;SDS011;7686;52.184;9.280;2023-03-01T08:50:57;2.38;;;1.05;;
15171;SDS011;7686;52.184;9.280;2023-03-01T08:53:33;1.73;;;1.02;;
15171;SDS011;7686;52.184;9.280;2023-03-01T08:56:00;2.28;;;1.23;;
15171;SDS011;7686;52.184;9.280;2023-03-01T08:58:29;3.13;;;1.10;;
15171;SDS011;7686;52.184;9.280;2023-03-01T09:00:56;2.17;;;1.10;;
15171;SDS011;7686;52.184;9.280;2023-03-01T09:03:23;1.95;;;0.90;;
15171;SDS011;7686;52.184;9.280;2023-03-01T09:05:51;1.60;;;0.93;;
15171;SDS011;7686;52.184;9.280;2023-03-01T09:08:19;2.65;;;1.08;;
15171;SDS011;7686;52.184;9.280;2023-03-01T09:10:46;2.20;;;1.20;;
15171;SDS011;7686;52.184;9.280;2023-03-01T09:13:13;3.90;;;1.20;;
15171;SDS011;7686;52.184;9.280;2023-03-01T09:15:39;1.88;;;1.00;;
15171;SDS011;7686;52.184;9.280;2023-03-01T09:18:06;2.47;;;1.02;;
15171;SDS011;7686;52.184;9.280;2023-03-01T09:20:32;1.13;;;0.77;;
15171;SDS011;7686;52.184;9.280;2023-03-01T09:22:59;2.55;;;1.13;;
15171;SDS011;7686;52.184;9.280;2023-03-01T09:25:26;1.73;;;1.00;;
15171;SDS011;7686;52.184;9.280;2023-03-01T09:27:53;2.97;;;1.10;;
15171;SDS011;7686;52.184;9.280;2023-03-01T09:30:20;2.63;;;1.00;;
15171;SDS011;7686;52.184;9.280;2023-03-01T09:32:47;2.78;;;1.10;;
15171;SDS011;7686;52.184;9.280;2023-03-01T09:35:14;1.75;;;1.05;;
15171;SDS011;7686;52.184;9.280;2023-03-01T09:37:40;2.22;;;1.08;;
15171;SDS011;7686;52.184;9.280;2023-03-01T09:40:14;3.65;;;0.90;;
15171;SDS011;7686;52.184;9.280;2023-03-01T09:42:55;2.88;;;1.10;;
15171;SDS011;7686;52.184;9.280;2023-03-01T09:45:35;1.23;;;0.90;;
15171;SDS011;7686;52.184;9.280;2023-03-01T09:48:06;1.48;;;1.00;;
15171;SDS011;7686;52.184;9.280;2023-03-01T09:50:42;2.20;;;1.05;;
15171;SDS011;7686;52.184;9.280;2023-03-01T09:53:16;3.75;;;1.33;;
15171;SDS011;7686;52.184;9.280;2023-03-01T09:55:55;1.63;;;1.17;;
15171;SDS011;7686;52.184;9.280;2023-03-01T09:58:38;1.98;;;1.05;;
15171;SDS011;7686;52.184;9.280;2023-03-01T10:01:23;4.40;;;1.20;;
15171;SDS011;7686;52.184;9.280;2023-03-01T10:04:09;1.42;;;1.00;;
15171;SDS011;7686;52.184;9.280;2023-03-01T10:06:39;1.92;;;1.15;;
15171;SDS011;7686;52.184;9.280;2023-03-01T10:09:11;1.85;;;1.25;;
15171;SDS011;7686;52.184;9.280;2023-03-01T10:11:43;2.75;;;1.15;;
15171;SDS011;7686;52.184;9.280;2023-03-01T10:16:57;2.13;;;1.30;;
15171;SDS011;7686;52.184;9.280;2023-03-01T10:22:13;2.13;;;1.15;;
15171;SDS011;7686;52.184;9.280;2023-03-01T10:24:48;1.50;;;1.10;;
15171;SDS011;7686;52.184;9.280;2023-03-01T10:30:07;1.73;;;1.20;;
15171;SDS011;7686;52.184;9.280;2023-03-01T10:32:47;2.22;;;1.25;;
15171;SDS011;7686;52.184;9.280;2023-03-01T10:35:19;2.67;;;1.20;;
15171;SDS011;7686;52.184;9.280;2023-03-01T10:38:12;1.25;;;0.95;;
15171;SDS011;7686;52.184;9.280;2023-03-01T10:43:43;2.92;;;1.10;;
15171;SDS011;7686;52.184;9.280;2023-03-01T10:49:05;2.58;;;1.23;;
15171;SDS011;7686;52.184;9.280;2023-03-01T10:51:41;2.42;;;1.05;;
15171;SDS011;7686;52.184;9.280;2023-03-01T10:54:23;2.63;;;1.10;;
15171;SDS011;7686;52.184;9.280;2023-03-01T10:56:56;1.25;;;0.98;;
15171;SDS011;7686;52.184;9.280;2023-03-01T10:59:30;1.30;;;1.00;;
15171;SDS011;7686;52.184;9.280;2023-03-01T11:02:20;2.13;;;1.25;;
15171;SDS011;7686;52.184;9.280;2023-03-01T11:05:01;1.05;;;0.80;;
15171;SDS011;7686;52.184;9.280;2023-03-01T11:07:28;1.92;;;1.10;;
15171;SDS011;7686;52.184;9.280;2023-03-01T11:09:55;1.90;;;1.15;;
15171;SDS011;7686;52.184;9.280;2023-03-01T11:12:21;2.08;;;1.00;;
15171;SDS011;7686;52.184;9.280;2023-03-01T11:14:52;1.52;;;1.00;;
15171;SDS011;7686;52.184;9.280;2023-03-01T11:17:30;1.90;;;1.00;;
15171;SDS011;7686;52.184;9.280;2023-03-01T11:22:46;1.42;;;1.00;;
15171;SDS011;7686;52.184;9.280;2023-03-01T11:25:19;1.02;;;0.90;;
15171;SDS011;7686;52.184;9.280;2023-03-01T11:27:52;0.80;;;0.80;;
15171;SDS011;7686;52.184;9.280;2023-03-01T11:35:28;1.20;;;0.98;;
15171;SDS011;7686;52.184;9.280;2023-03-01T11:40:33;9.02;;;4.35;;
15171;SDS011;7686;52.184;9.280;2023-03-01T11:43:05;7.53;;;4.20;;
15171;SDS011;7686;52.184;9.280;2023-03-01T11:51:23;4.57;;;2.40;;
15171;SDS011;7686;52.184;9.280;2023-03-01T11:53:59;3.60;;;2.20;;
15171;SDS011;7686;52.184;9.280;2023-03-01T11:56:48;3.17;;;1.85;;
15171;SDS011;7686;52.184;9.280;2023-03-01T12:13:47;1.73;;;1.27;;
15171;SDS011;7686;52.184;9.280;2023-03-01T12:25:41;3.30;;;1.50;;
15171;SDS011;7686;52.184;9.280;2023-03-01T12:33:22;4.05;;;1.65;;
15171;SDS011;7686;52.184;9.280;2023-03-01T12:38:49;3.35;;;1.42;;
15171;SDS011;7686;52.184;9.280;2023-03-01T12:41:37;2.28;;;1.30;;
15171;SDS011;7686;52.184;9.280;2023-03-01T12:44:47;1.80;;;1.30;;
15171;SDS011;7686;52.184;9.280;2023-03-01T12:47:37;1.75;;;1.23;;
15171;SDS011;7686;52.184;9.280;2023-03-01T12:50:18;2.20;;;1.35;;
15171;SDS011;7686;52.184;9.280;2023-03-01T12:52:49;1.90;;;1.30;;
15171;SDS011;7686;52.184;9.280;2023-03-01T12:58:07;1.98;;;1.20;;
15171;SDS011;7686;52.184;9.280;2023-03-01T13:10:24;1.90;;;1.23;;
15171;SDS011;7686;52.184;9.280;2023-03-01T13:13:14;4.03;;;1.42;;
15171;SDS011;7686;52.184;9.280;2023-03-01T13:15:49;2.10;;;1.35;;
15171;SDS011;7686;52.184;9.280;2023-03-01T13:20:47;2.30;;;1.30;;
15171;SDS011;7686;52.184;9.280;2023-03-01T13:30:58;1.58;;;1.15;;
15171;SDS011;7686;52.184;9.280;2023-03-01T13:35:55;2.33;;;1.30;;
15171;SDS011;7686;52.184;9.280;2023-03-01T13:41:16;2.58;;;1.30;;
15171;SDS011;7686;52.184;9.280;2023-03-01T13:46:50;3.17;;;1.40;;
15171;SDS011;7686;52.184;9.280;2023-03-01T13:49:42;2.08;;;1.20;;
15171;SDS011;7686;52.184;9.280;2023-03-01T13:55:42;1.48;;;1.30;;
15171;SDS011;7686;52.184;9.280;2023-03-01T14:00:44;1.48;;;1.17;;
15171;SDS011;7686;52.184;9.280;2023-03-01T14:03:17;1.83;;;1.10;;
15171;SDS011;7686;52.184;9.280;2023-03-01T14:08:46;1.65;;;1.13;;
15171;SDS011;7686;52.184;9.280;2023-03-01T14:14:14;2.13;;;1.30;;
15171;SDS011;7686;52.184;9.280;2023-03-01T14:19:56;1.27;;;1.00;;
15171;SDS011;7686;52.184;9.280;2023-03-01T14:22:28;2.40;;;1.33;;
15171;SDS011;7686;52.184;9.280;2023-03-01T14:25:04;1.60;;;1.25;;
15171;SDS011;7686;52.184;9.280;2023-03-01T14:27:42;1.98;;;1.20;;
15171;SDS011;7686;52.184;9.280;2023-03-01T14:32:57;1.80;;;1.15;;
15171;SDS011;7686;52.184;9.280;2023-03-01T14:35:33;1.48;;;1.00;;
15171;SDS011;7686;52.184;9.280;2023-03-01T14:38:02;1.85;;;1.20;;
15171;SDS011;7686;52.184;9.280;2023-03-01T14:40:30;2.55;;;1.20;;
15171;SDS011;7686;52.184;9.280;2023-03-01T14:43:01;2.03;;;1.20;;
15171;SDS011;7686;52.184;9.280;2023-03-01T14:45:35;1.88;;;1.20;;
15171;SDS011;7686;52.184;9.280;2023-03-01T14:48:03;1.60;;;1.10;;
15171;SDS011;7686;52.184;9.280;2023-03-01T14:50:32;2.33;;;1.15;;
15171;SDS011;7686;52.184;9.280;2023-03-01T14:53:02;2.55;;;1.15;;
15171;SDS011;7686;52.184;9.280;2023-03-01T14:55:38;3.33;;;1.10;;
15171;SDS011;7686;52.184;9.280;2023-03-01T14:58:12;1.58;;;1.10;;
15171;SDS011;7686;52.184;9.280;2023-03-01T15:00:47;2.00;;;1.10;;
15171;SDS011;7686;52.184;9.280;2023-03-01T15:03:24;1.35;;;1.10;;
15171;SDS011;7686;52.184;9.280;2023-03-01T15:06:08;2.50;;;1.15;;
15171;SDS011;7686;52.184;9.280;2023-03-01T15:08:35;3.40;;;1.10;;
15171;SDS011;7686;52.184;9.280;2023-03-01T15:13:40;1.63;;;1.10;;
15171;SDS011;7686;52.184;9.280;2023-03-01T15:18:33;0.80;;;0.80;;
15171;SDS011;7686;52.184;9.280;2023-03-01T15:21:35;1.27;;;1.05;;
15171;SDS011;7686;52.184;9.280;2023-03-01T15:29:21;1.75;;;1.08;;
15171;SDS011;7686;52.184;9.280;2023-03-01T15:31:54;2.42;;;1.27;;
15171;SDS011;7686;52.184;9.280;2023-03-01T15:34:36;2.30;;;1.05;;
15171;SDS011;7686;52.184;9.280;2023-03-01T15:37:33;1.50;;;0.85;;
15171;SDS011;7686;52.184;9.280;2023-03-01T15:42:47;1.58;;;1.00;;
15171;SDS011;7686;52.184;9.280;2023-03-01T15:47:46;1.42;;;0.93;;
15171;SDS011;7686;52.184;9.280;2023-03-01T15:50:16;1.73;;;0.90;;
15171;SDS011;7686;52.184;9.280;2023-03-01T15:52:46;1.27;;;0.88;;
15171;SDS011;7686;52.184;9.280;2023-03-01T15:55:26;1.42;;;1.08;;
15171;SDS011;7686;52.184;9.280;2023-03-01T15:58:00;1.25;;;0.90;;
15171;SDS011;7686;52.184;9.280;2023-03-01T16:00:36;1.27;;;0.98;;
15171;SDS011;7686;52.184;9.280;2023-03-01T16:03:12;1.35;;;0.90;;
15171;SDS011;7686;52.184;9.280;2023-03-01T16:05:38;1.13;;;0.80;;
15171;SDS011;7686;52.184;9.280;2023-03-01T16:08:05;1.30;;;0.90;;
15171;SDS011;7686;52.184;9.280;2023-03-01T16:10:33;1.20;;;0.90;;
15171;SDS011;7686;52.184;9.280;2023-03-01T16:13:00;1.27;;;1.00;;
15171;SDS011;7686;52.184;9.280;2023-03-01T16:15:31;0.90;;;0.88;;
15171;SDS011;7686;52.184;9.280;2023-03-01T16:18:02;1.48;;;1.10;;
15171;SDS011;7686;52.184;9.280;2023-03-01T16:20:29;1.55;;;1.00;;
15171;SDS011;7686;52.184;9.280;2023-03-01T16:22:59;0.90;;;0.80;;
15171;SDS011;7686;52.184;9.280;2023-03-01T16:25:28;2.58;;;0.80;;
15171;SDS011;7686;52.184;9.280;2023-03-01T16:27:56;1.88;;;1.10;;
15171;SDS011;7686;52.184;9.280;2023-03-01T16:30:24;2.30;;;0.95;;
15171;SDS011;7686;52.184;9.280;2023-03-01T16:32:51;1.80;;;1.13;;
15171;SDS011;7686;52.184;9.280;2023-03-01T16:35:19;2.45;;;1.02;;
15171;SDS011;7686;52.184;9.280;2023-03-01T16:37:47;2.35;;;1.00;;
15171;SDS011;7686;52.184;9.280;2023-03-01T16:40:18;1.42;;;1.02;;
15171;SDS011;7686;52.184;9.280;2023-03-01T16:42:47;1.45;;;0.90;;
15171;SDS011;7686;52.184;9.280;2023-03-01T16:45:14;1.60;;;1.05;;
15171;SDS011;7686;52.184;9.280;2023-03-01T16:47:50;1.13;;;0.80;;
15171;SDS011;7686;52.184;9.280;2023-03-01T16:50:20;2.03;;;1.02;;
15171;SDS011;7686;52.184;9.280;2023-03-01T16:52:47;1.70;;;0.82;;
15171;SDS011;7686;52.184;9.280;2023-03-01T16:55:14;1.30;;;0.90;;
15171;SDS011;7686;52.184;9.280;2023-03-01T16:57:41;1.30;;;0.88;;
15171;SDS011;7686;52.184;9.280;2023-03-01T17:00:08;0.93;;;0.70;;
15171;SDS011;7686;52.184;9.280;2023-03-01T17:02:39;1.10;;;1.00;;
15171;SDS011;7686;52.184;9.280;2023-03-01T17:05:07;0.80;;;0.80;;
15171;SDS011;7686;52.184;9.280;2023-03-01T17:07:35;1.25;;;0.80;;
15171;SDS011;7686;52.184;9.280;2023-03-01T17:10:03;2.88;;;0.93;;
15171;SDS011;7686;52.184;9.280;2023-03-01T17:12:31;0.73;;;0.60;;
15171;SDS011;7686;52.184;9.280;2023-03-01T17:14:59;1.65;;;0.85;;
15171;SDS011;7686;52.184;9.280;2023-03-01T17:17:27;0.88;;;0.80;;
15171;SDS011;7686;52.184;9.280;2023-03-01T17:19:53;0.95;;;0.80;;
15171;SDS011;7686;52.184;9.280;2023-03-01T17:22:20;0.80;;;0.75;;
15171;SDS011;7686;52.184;9.280;2023-03-01T17:24:47;1.20;;;0.90;;
15171;SDS011;7686;52.184;9.280;2023-03-01T17:27:13;4.75;;;0.98;;
15171;SDS011;7686;52.184;9.280;2023-03-01T17:29:41;0.90;;;0.80;;
15171;SDS011;7686;52.184;9.280;2023-03-01T17:32:08;1.13;;;0.90;;
15171;SDS011;7686;52.184;9.280;2023-03-01T17:34:35;2.05;;;0.82;;
15171;SDS011;7686;52.184;9.280;2023-03-01T17:37:02;0.90;;;0.70;;